| time (UTC) | temp F | wind direction | speed knots | gust knots | rain 1hr in | rain 24hr in | rain mn in | humidity % | barometer mb |
| 20260510153005 | 83 | 87 | 0.0 | 3.5 | 0.00 | 0.00 | 0.00 | 37 | 0.9 |
| 20260510151505 | 82 | 145 | 0.0 | 2.6 | 0.00 | 0.00 | 0.00 | 37 | 0.9 |
| 20260510150005 | 81 | 0.0 | 1.7 | 0.00 | 0.00 | 0.00 | 39 | 0.9 | |
| 20260510144505 | 79 | 22 | 0.0 | 1.7 | 0.00 | 0.00 | 0.00 | 41 | 0.9 |
| 20260510143005 | 76 | 107 | 0.0 | 1.7 | 0.00 | 0.00 | 0.00 | 44 | 0.9 |
| 20260510141505 | 76 | 0.0 | 0.0 | 0.00 | 0.00 | 0.00 | 47 | 0.9 | |
| 20260510140005 | 74 | 217 | 0.0 | 1.7 | 0.00 | 0.00 | 0.00 | 47 | 0.9 |
| 20260510134505 | 73 | 180 | 0.0 | 2.6 | 0.00 | 0.00 | 0.00 | 52 | 0.9 |
| 20260510133005 | 71 | 0.0 | 0.0 | 0.00 | 0.00 | 0.00 | 58 | 0.9 | |
| 20260510131506 | 69 | 0.0 | 0.0 | 0.00 | 0.00 | 0.00 | 64 | 0.9 | |
| 20260510130006 | 67 | 0.0 | 0.0 | 0.00 | 0.00 | 0.00 | 70 | 0.9 | |
| 20260510124506 | 65 | 0.0 | 0.0 | 0.00 | 0.00 | 0.00 | 74 | 0.9 | |
| 20260510123005 | 63 | 0.0 | 0.0 | 0.00 | 0.00 | 0.00 | 79 | 0.9 | |
| 20260510121505 | 62 | 0.0 | 0.0 | 0.00 | 0.00 | 0.00 | 82 | 0.9 | |
| 20260510120005 | 60 | 0.0 | 0.0 | 0.00 | 0.00 | 0.00 | 88 | 0.9 | |
| 20260510114505 | 59 | 0.0 | 0.0 | 0.00 | 0.00 | 0.00 | 90 | 0.9 | |
| 20260510113005 | 58 | 0.0 | 0.0 | 0.00 | 0.00 | 0.00 | 92 | 0.9 | |
| 20260510111505 | 57 | 0.0 | 0.0 | 0.00 | 0.00 | 0.00 | 92 | 0.9 | |
| 20260510110005 | 56 | 0.0 | 0.0 | 0.00 | 0.00 | 0.00 | 92 | 0.9 | |
| 20260510104505 | 56 | 0.0 | 0.0 | 0.00 | 0.00 | 0.00 | 92 | 0.9 | |
| 20260510103005 | 56 | 0.0 | 0.0 | 0.00 | 0.00 | 0.00 | 92 | 0.9 | |
| 20260510101505 | 56 | 0.0 | 0.0 | 0.00 | 0.00 | 0.00 | 91 | 0.9 | |
| 20260510100005 | 56 | 0.0 | 0.0 | 0.00 | 0.00 | 0.00 | 90 | 0.9 | |
| 20260510094505 | 57 | 0.0 | 0.0 | 0.00 | 0.00 | 0.00 | 90 | 0.9 | |
| 20260510093005 | 57 | 0.0 | 0.0 | 0.00 | 0.00 | 0.00 | 89 | 0.9 | |
| 20260510091505 | 58 | 0.0 | 0.0 | 0.00 | 0.00 | 0.00 | 89 | 0.9 | |
| 20260510090006 | 58 | 0.0 | 0.0 | 0.00 | 0.00 | 0.00 | 89 | 0.9 | |
| 20260510084506 | 59 | 0.0 | 0.0 | 0.00 | 0.00 | 0.00 | 87 | 0.9 | |
| 20260510083006 | 60 | 0.0 | 0.0 | 0.00 | 0.00 | 0.00 | 86 | 0.9 | |
| 20260510081506 | 60 | 0.0 | 0.0 | 0.00 | 0.00 | 0.00 | 86 | 0.9 | |
| 20260510080006 | 61 | 0.0 | 0.0 | 0.00 | 0.00 | 0.00 | 84 | 0.9 | |
| 20260510074506 | 62 | 0.0 | 0.0 | 0.00 | 0.00 | 0.00 | 83 | 0.9 | |
| 20260510073005 | 63 | 0.0 | 0.0 | 0.00 | 0.00 | 0.00 | 81 | 0.9 | |
| 20260510071505 | 64 | 0.0 | 0.0 | 0.00 | 0.00 | 0.00 | 80 | 0.9 | |
| 20260510070005 | 64 | 0.0 | 0.0 | 0.00 | 0.00 | 0.00 | 79 | 0.9 | |
| 20260510064505 | 65 | 0.0 | 0.0 | 0.00 | 0.00 | 0.00 | 78 | 0.9 | |
| 20260510063005 | 65 | 0.0 | 0.0 | 0.00 | 0.00 | 0.00 | 77 | 0.9 | |
| 20260510061505 | 66 | 0.0 | 0.0 | 0.00 | 0.00 | 0.00 | 77 | 0.9 | |
| 20260510060006 | 66 | 0.0 | 0.0 | 0.00 | 0.00 | 0.00 | 76 | 0.9 | |
| 20260510054505 | 67 | 0.0 | 0.0 | 0.00 | 0.00 | 0.00 | 75 | 0.9 | |
| 20260510053005 | 67 | 225 | 0.0 | 3.5 | 0.00 | 0.00 | 0.00 | 75 | 0.9 |
| 20260510051505 | 67 | 216 | 0.0 | 1.7 | 0.00 | 0.00 | 0.00 | 75 | 0.9 |
| 20260510050005 | 67 | 270 | 0.0 | 1.7 | 0.00 | 0.00 | 0.00 | 75 | 0.9 |
| 20260510044505 | 66 | 0.0 | 1.7 | 0.00 | 0.00 | 0.00 | 75 | 0.9 | |
| 20260510043005 | 66 | 0.0 | 0.0 | 0.00 | 0.00 | 0.00 | 74 | 0.9 | |
| 20260510041506 | 66 | 0.0 | 0.0 | 0.00 | 0.00 | 0.00 | 74 | 0.9 | |
| 20260510040006 | 67 | 0.0 | 0.0 | 0.00 | 0.00 | 0.00 | 72 | 0.9 | |
| 20260510034506 | 67 | 0.0 | 0.0 | 0.00 | 0.00 | 0.00 | 72 | 0.9 | |
| 20260510033006 | 67 | 0.0 | 0.0 | 0.00 | 0.00 | 0.00 | 71 | 0.9 | |
| 20260510031506 | 67 | 0.0 | 0.0 | 0.00 | 0.00 | 0.00 | 70 | 0.9 | |
| 20260510030005 | 67 | 0.0 | 0.0 | 0.00 | 0.00 | 0.00 | 69 | 0.9 | |
| 20260510024505 | 67 | 0.0 | 0.0 | 0.00 | 0.00 | 0.00 | 69 | 0.9 | |
| 20260510023005 | 68 | 0.0 | 0.0 | 0.00 | 0.00 | 0.00 | 68 | 0.9 | |
| 20260510021505 | 68 | 0.0 | 0.0 | 0.00 | 0.00 | 0.00 | 68 | 0.9 | |
| 20260510020005 | 68 | 0.0 | 0.0 | 0.00 | 0.00 | 0.00 | 68 | 0.9 | |
| 20260510014505 | 67 | 0.0 | 0.0 | 0.00 | 0.00 | 0.00 | 68 | 0.9 | |
| 20260510013005 | 68 | 0.0 | 0.0 | 0.00 | 0.00 | 0.00 | 66 | 0.9 | |
| 20260510011505 | 68 | 270 | 0.0 | 1.7 | 0.00 | 0.00 | 0.00 | 66 | 0.9 |
| 20260510010005 | 68 | 0.0 | 0.0 | 0.00 | 0.00 | 0.00 | 65 | 0.9 | |
| 20260510004505 | 69 | 0.0 | 0.0 | 0.00 | 0.00 | 0.00 | 63 | 0.9 | |
| 20260510003005 | 69 | 0.0 | 0.0 | 0.00 | 0.00 | 0.00 | 60 | 0.9 | |
| 20260510001505 | 70 | 0.0 | 0.0 | 0.00 | 0.00 | 0.00 | 58 | 0.9 | |
| 20260510000005 | 72 | 0.0 | 0.0 | 0.00 | 0.00 | 0.00 | 55 | 0.9 | |
| 20260509234505 | 72 | 0.0 | 0.0 | 0.00 | 0.00 | 0.00 | 53 | 0.9 | |
| 20260509233006 | 73 | 0.0 | 0.0 | 0.00 | 0.00 | 0.00 | 53 | 0.9 | |
| 20260509231506 | 74 | 0.0 | 0.0 | 0.00 | 0.00 | 0.00 | 51 | 0.9 | |
| 20260509230006 | 74 | 0.0 | 2.6 | 0.00 | 0.00 | 0.00 | 50 | 0.9 | |
| 20260509224506 | 75 | 0.0 | 0.0 | 0.00 | 0.00 | 0.00 | 50 | 0.9 | |
| 20260509223006 | 75 | 0.0 | 0.0 | 0.00 | 0.00 | 0.00 | 51 | 0.9 | |
| 20260509221505 | 76 | 0.0 | 0.9 | 0.00 | 0.00 | 0.00 | 49 | 0.9 | |
| 20260509220005 | 76 | 217 | 0.0 | 2.6 | 0.00 | 0.00 | 0.00 | 49 | 0.9 |
| 20260509214505 | 75 | 133 | 0.0 | 2.6 | 0.00 | 0.00 | 0.00 | 51 | 0.9 |
| 20260509213006 | 76 | 250 | 0.0 | 2.6 | 0.00 | 0.00 | 0.00 | 48 | 0.9 |
| 20260509211505 | 76 | 202 | 0.0 | 3.5 | 0.00 | 0.00 | 0.00 | 47 | 0.9 |
| 20260509210005 | 76 | 178 | 0.0 | 1.7 | 0.00 | 0.00 | 0.00 | 49 | 0.9 |
| 20260509204505 | 76 | 144 | 0.0 | 3.5 | 0.00 | 0.00 | 0.00 | 48 | 0.9 |
| 20260509203005 | 77 | 216 | 0.0 | 2.6 | 0.00 | 0.00 | 0.00 | 46 | 0.9 |
| 20260509201505 | 77 | 202 | 0.0 | 1.7 | 0.00 | 0.00 | 0.00 | 47 | 0.9 |
| 20260509200005 | 77 | 158 | 0.0 | 1.7 | 0.00 | 0.00 | 0.00 | 47 | 0.9 |
| 20260509194505 | 76 | 264 | 0.0 | 2.6 | 0.00 | 0.00 | 0.00 | 46 | 0.9 |
| 20260509193005 | 79 | 0.0 | 0.0 | 0.00 | 0.00 | 0.00 | 44 | 0.9 | |
| 20260509191505 | 77 | 146 | 0.0 | 2.6 | 0.00 | 0.00 | 0.00 | 45 | 0.9 |
| 20260509190006 | 77 | 253 | 0.0 | 2.6 | 0.00 | 0.00 | 0.00 | 45 | 0.9 |
| 20260509184506 | 78 | 196 | 0.0 | 3.5 | 0.00 | 0.00 | 0.00 | 45 | 0.9 |
| 20260509183006 | 77 | 238 | 0.0 | 1.7 | 0.00 | 0.00 | 0.00 | 44 | 0.9 |
| 20260509181506 | 77 | 143 | 0.0 | 1.7 | 0.00 | 0.00 | 0.00 | 45 | 0.9 |
| 20260509180006 | 78 | 207 | 0.0 | 1.7 | 0.00 | 0.00 | 0.00 | 43 | 0.9 |
| 20260509174506 | 78 | 0.0 | 0.0 | 0.00 | 0.00 | 0.00 | 43 | 0.9 | |
| 20260509173006 | 77 | 187 | 0.0 | 3.5 | 0.00 | 0.00 | 0.00 | 46 | 0.9 |
| 20260509171505 | 76 | 205 | 0.0 | 2.6 | 0.00 | 0.00 | 0.00 | 48 | 0.9 |
| 20260509170005 | 75 | 213 | 0.0 | 1.7 | 0.00 | 0.00 | 0.00 | 49 | 0.9 |
| 20260509164505 | 74 | 248 | 0.0 | 2.6 | 0.00 | 0.00 | 0.00 | 49 | 0.9 |
| 20260509163005 | 75 | 215 | 0.0 | 2.6 | 0.00 | 0.00 | 0.00 | 47 | 0.9 |
| 20260509161505 | 74 | 192 | 0.0 | 2.6 | 0.00 | 0.00 | 0.00 | 46 | 0.9 |
| 20260509160005 | 75 | 249 | 0.0 | 2.6 | 0.00 | 0.00 | 0.00 | 47 | 0.9 |
| 20260509154505 | 74 | 0.0 | 0.0 | 0.00 | 0.00 | 0.00 | 49 | 0.9 |